Latest Weather Observations for Leigh Creek

IDS60801

Issued at 9:51 am CDT Friday 23 February 2024 (issued every 10 minutes, with the page automatically refreshed every 10 minutes)

About weather observations | Map of weather stations | Latest weather observations for SA | Other Formats
Station Details ID: 017110 Name: LEIGH CREEK AIRPORT Lat: -30.60 Lon: 138.42 Height: 258.8 m
Data from the previous 72 hours. | See also: Recent months at Leigh Creek
Date/Time
CDT
Temp
°C
App
Temp
°C
Dew
Point
°C
Rel
Hum
%
Delta-T
°C
Wind Press
QNH
hPa
Press
MSL
hPa
Rain since
9am
mm
Dir  Spd
km/h
Gust
km/h
Spd
kts
Gust
kts
23/09:30am 21.8 16.3 12.4 55 5.4 SSW 33 41 18 22 1014.8 1013.2 0.0
23/09:00am 21.2 15.4 12.6 58 4.9 SSW 35 48 19 26 1014.6 1013.0 0.0
23/08:30am 20.5 15.1 12.7 61 4.5 SSW 33 43 18 23 1014.5 1012.9 0.0
23/08:00am 19.9 14.9 13.4 66 3.8 SSW 32 41 17 22 1014.1 1012.5 0.0
23/07:30am 19.7 15.4 14.3 71 3.2 SSW 30 39 16 21 1013.9 1012.3 0.0
23/07:00am 19.8 16.8 14.8 73 3.0 SSW 24 33 13 18 1013.5 1011.9 0.0
23/06:30am 19.9 17.0 15.1 74 2.9 SSW 24 33 13 18 1013.2 1011.6 0.0
23/06:00am 20.2 17.9 15.6 75 2.8 SSW 22 32 12 17 1012.9 1011.2 0.0
23/05:30am 20.3 17.6 15.5 74 2.9 S 24 35 13 19 1012.3 1010.7 0.0
23/05:00am 20.5 17.8 15.5 73 3.0 SSW 24 32 13 17 1011.9 1010.3 0.0
23/04:30am 21.2 19.3 15.7 71 3.3 S 20 26 11 14 1011.7 1010.1 0.0
23/04:00am 21.6 18.8 15.4 68 3.7 SSW 24 32 13 17 1011.3 1009.7 0.0
23/03:30am 22.5 20.5 15.4 64 4.3 SSW 20 30 11 16 1011.1 1009.5 0.0
23/03:00am 23.3 20.7 14.8 59 5.1 SSW 22 30 12 16 1010.9 1009.3 0.0
23/02:30am 23.9 19.8 14.9 57 5.4 SSW 30 41 16 22 1010.7 1009.1 0.0
23/02:00am 24.4 20.6 14.8 55 5.8 SSW 28 35 15 19 1010.5 1008.9 0.0
23/01:30am 25.5 21.8 14.9 52 6.4 SSW 28 44 15 24 1010.3 1008.7 0.0
23/01:09am 28.1 26.5 14.0 42 8.5 NW 15 35 8 19 1010.2 1008.6 0.0
23/01:00am 28.8 26.4 11.4 34 10.1 N 15 17 8 9 1009.9 1008.3 0.0
23/12:30am 29.3 26.1 11.4 33 10.4 N 19 19 10 10 1009.4 1007.7 0.0
23/12:00am 30.1 27.8 11.6 32 10.9 N 15 17 8 9 1009.5 1007.8 0.0
 
Date/Time
CDT
Temp
°C
App
Temp
°C
Dew
Point
°C
Rel
Hum
%
Delta-T
°C
Wind Press
QNH
hPa
Press
MSL
hPa
Rain since
9am
mm
Dir  Spd
km/h
Gust
km/h
Spd
kts
Gust
kts
22/11:30pm 30.8 28.5 11.7 31 11.3 N 15 17 8 9 1009.7 1008.1 0.0
22/11:00pm 30.8 28.5 11.7 31 11.3 N 15 17 8 9 1009.7 1008.1 0.0
22/10:30pm 32.0 29.3 11.7 28 12.0 NNW 17 20 9 11 1009.8 1008.2 0.0
22/10:00pm 32.9 30.1 11.4 27 12.7 NNW 17 24 9 13 1009.7 1008.1 0.0
22/09:30pm 34.1 31.7 11.3 25 13.6 WNW 15 17 8 9 1009.6 1007.9 0.0
22/09:00pm 35.4 33.1 11.7 23 14.2 WNW 15 20 8 11 1009.4 1007.7 0.0
22/08:30pm 35.9 33.9 11.5 23 14.7 WNW 13 20 7 11 1009.0 1007.3 0.0
22/08:00pm 36.9 33.6 11.7 22 15.2 WNW 20 28 11 15 1008.7 1007.0 0.0
22/07:30pm 37.7 34.4 11.6 21 15.8 NW 20 28 11 15 1008.5 1006.8 0.0
22/07:00pm 38.5 35.6 12.3 21 16.1 WNW 19 30 10 16 1008.2 1006.6 0.0
22/06:30pm 38.9 35.9 11.9 20 16.5 NW 19 26 10 14 1008.0 1006.4 0.0
22/06:00pm 39.0 36.4 12.0 20 16.5 NW 17 28 9 15 1008.0 1006.4 0.0
22/05:30pm 39.5 36.2 11.6 19 17.0 WNW 20 28 11 15 1008.0 1006.4 0.0
22/05:00pm 39.5 37.0 12.4 20 16.7 WNW 17 26 9 14 1008.2 1006.6 0.0
22/04:30pm 38.8 35.8 12.5 21 16.2 WNW 20 39 11 21 1008.3 1006.7 0.0
22/04:00pm 39.3 36.2 12.2 20 16.6 W 20 28 11 15 1008.6 1006.9 0.0
22/03:30pm 38.5 35.3 13.0 22 15.8 WNW 22 32 12 17 1009.1 1007.4 0.0
22/03:00pm 37.3 34.3 12.7 23 15.1 NNW 20 37 11 20 1009.4 1007.7 0.0
22/02:30pm 38.0 35.1 13.9 24 15.1 NW 22 41 12 22 1009.7 1008.1 0.0
22/02:00pm 38.4 35.6 14.2 23 15.2 NNW 22 39 12 21 1010.2 1008.6 0.0
22/01:30pm 37.5 33.8 12.8 22 15.2 NNW 24 41 13 22 1010.6 1009.0 0.0
22/01:00pm 36.7 33.5 15.2 27 13.6 NNW 26 39 14 21 1011.0 1009.4 0.0
22/12:30pm 36.0 34.1 15.7 30 12.9 NNW 20 35 11 19 1011.3 1009.7 0.0
22/12:00pm 34.1 32.3 16.0 34 11.5 NNW 20 32 11 17 1011.5 1009.9 0.0
22/11:30am 33.8 32.1 17.1 37 10.8 N 22 33 12 18 1011.8 1010.2 0.0
22/11:00am 33.3 31.7 17.5 39 10.2 N 22 32 12 17 1011.9 1010.3 0.0
22/10:30am 32.6 31.6 17.6 40 9.7 NNW 19 30 10 16 1012.1 1010.5 0.0
22/10:00am 31.6 30.6 17.5 43 9.1 N 19 26 10 14 1012.1 1010.5 0.0
22/09:30am 30.0 29.4 17.5 47 8.0 N 17 24 9 13 1012.0 1010.4 0.0
22/09:00am 29.3 29.4 17.5 49 7.6 N 13 19 7 10 1011.8 1010.2 0.0
22/08:30am 28.3 28.9 16.9 50 7.2 N 9 13 5 7 1011.8 1010.2 0.0
22/08:00am 26.8 28.8 16.1 52 6.6 CALM 0 0 0 0 1011.7 1010.1 0.0
22/07:30am 25.3 25.1 14.7 51 6.4 N 9 13 5 7 1011.3 1009.7 0.0
22/07:00am 24.4 24.7 11.0 43 7.6 CALM 0 6 0 3 1011.2 1009.6 0.0
22/06:30am 24.1 22.8 11.1 44 7.4 N 9 11 5 6 1010.9 1009.3 0.0
22/06:00am 23.1 20.6 8.0 38 8.1 N 11 15 6 8 1010.4 1008.8 0.0
22/05:30am 25.7 22.3 10.7 39 8.5 N 19 20 10 11 1010.0 1008.4 0.0
22/05:00am 23.8 21.6 6.1 32 9.2 E 7 9 4 5 1009.7 1008.1 0.0
22/04:30am 23.0 20.7 5.9 33 8.8 E 7 11 4 6 1009.5 1007.8 0.0
22/04:00am 23.2 19.7 5.6 32 9.0 E 13 15 7 8 1009.3 1007.6 0.0
22/03:30am 23.9 22.1 5.3 30 9.5 E 4 7 2 4 1009.3 1007.6 0.0
22/03:00am 24.7 22.5 5.5 29 9.9 E 6 11 3 6 1009.2 1007.5 0.0
22/02:30am 25.3 23.9 5.5 28 10.2 E 2 6 1 3 1009.0 1007.3 0.0
22/02:00am 26.6 25.7 6.1 27 10.8 CALM 0 0 0 0 1009.2 1007.5 0.0
22/01:30am 26.3 25.3 5.8 27 10.7 CALM 0 0 0 0 1009.4 1007.7 0.0
22/01:00am 27.2 25.5 6.0 26 11.2 E 4 7 2 4 1009.6 1007.9 0.0
22/12:30am 27.8 23.9 5.4 24 11.7 E 15 15 8 8 1009.7 1008.1 0.0
22/12:00am 28.5 27.2 6.0 24 12.0 WSW 2 9 1 5 1009.8 1008.2 0.0
 
Date/Time
CDT
Temp
°C
App
Temp
°C
Dew
Point
°C
Rel
Hum
%
Delta-T
°C
Wind Press
QNH
hPa
Press
MSL
hPa
Rain since
9am
mm
Dir  Spd
km/h
Gust
km/h
Spd
kts
Gust
kts
21/11:30pm 30.8 28.7 6.6 22 13.2 WSW 7 9 4 5 1009.9 1008.3 0.0
21/11:00pm 30.7 28.1 5.9 21 13.3 WSW 9 11 5 6 1009.9 1008.3 0.0
21/10:30pm 31.2 29.0 6.3 21 13.5 WSW 7 9 4 5 1009.7 1008.1 0.0
21/10:00pm 31.3 28.5 7.1 22 13.3 WSW 11 13 6 7 1009.5 1007.8 0.0
21/09:30pm 32.1 29.7 7.0 21 13.8 WSW 9 15 5 8 1008.9 1007.2 0.0
21/09:00pm 33.6 29.8 7.6 20 14.6 SW 17 20 9 11 1008.3 1006.7 0.0
21/08:30pm 33.9 30.7 7.0 19 15.0 WSW 13 20 7 11 1008.0 1006.4 0.0
21/08:00pm 35.0 32.6 7.1 18 15.6 NW 9 13 5 7 1007.4 1005.8 0.0
21/07:30pm 36.2 33.7 8.1 18 16.1 NW 11 20 6 11 1007.2 1005.6 0.0
21/07:00pm 36.8 33.4 7.8 17 16.5 NW 15 22 8 12 1007.0 1005.4 0.0
21/06:30pm 36.9 33.7 7.0 16 16.9 WNW 13 20 7 11 1006.9 1005.3 0.0
21/06:00pm 37.4 33.8 8.2 17 16.8 N 17 28 9 15 1006.8 1005.2 0.0
21/05:30pm 37.7 34.3 7.6 16 17.2 NW 15 26 8 14 1006.7 1005.1 0.0
21/05:00pm 37.0 34.4 7.9 17 16.6 N 11 22 6 12 1006.7 1005.1 0.0
21/04:30pm 37.3 34.4 8.2 17 16.8 NNW 13 28 7 15 1006.9 1005.3 0.0
21/04:00pm 37.2 33.5 8.1 17 16.7 NNW 17 26 9 14 1007.1 1005.5 0.0
21/03:30pm 37.0 33.3 7.9 17 16.7 NW 17 28 9 15 1007.3 1005.7 0.0
21/03:00pm 37.0 33.1 8.8 18 16.4 NNW 19 32 10 17 1007.7 1006.1 0.0
21/02:30pm 36.8 32.9 9.4 19 16.0 N 20 32 11 17 1008.2 1006.6 0.0
21/02:00pm 36.2 32.2 8.9 19 15.8 N 20 30 11 16 1008.6 1006.9 0.0
21/01:30pm 36.3 33.4 9.8 20 15.5 NNW 15 30 8 16 1008.9 1007.2 0.0
21/01:00pm 35.6 32.4 9.9 21 15.0 N 17 24 9 13 1009.3 1007.6 0.0
21/12:30pm 34.8 31.1 9.3 21 14.8 NNW 19 30 10 16 1009.6 1007.9 0.0
21/12:00pm 34.2 31.0 10.1 23 14.1 NNW 17 24 9 13 1010.0 1008.4 0.0
21/11:30am 33.4 30.2 11.9 27 12.9 NNW 20 24 11 13 1010.1 1008.5 0.0
21/11:00am 32.5 30.4 13.7 32 11.5 NNW 17 22 9 12 1010.2 1008.6 0.0
21/10:30am 31.6 30.1 14.3 35 10.7 NNW 15 24 8 13 1010.1 1008.5 0.0
21/10:00am 30.7 29.0 14.8 38 9.8 N 17 30 9 16 1010.0 1008.4 0.0
21/09:30am 29.3 28.2 14.3 40 9.2 N 13 17 7 9 1010.0 1008.4 0.0
21/09:00am 28.9 28.7 14.7 42 8.7 NNW 9 15 5 8 1009.8 1008.2 0.0
21/08:30am 27.3 27.1 14.7 46 7.7 N 9 11 5 6 1009.7 1008.1 0.0
21/08:00am 25.4 24.5 12.6 45 7.5 N 9 11 5 6 1009.8 1008.2 0.0
21/07:30am 24.5 23.7 12.8 48 6.8 N 9 11 5 6 1009.3 1007.6 0.0
21/07:00am 23.0 23.0 11.1 47 6.7 N 2 7 1 4 1009.2 1007.5 0.0
21/06:30am 23.4 24.1 12.1 49 6.5 CALM 0 0 0 0 1008.8 1007.1 0.0
21/06:00am 23.7 24.2 11.7 47 6.9 CALM 0 0 0 0 1008.5 1006.8 0.0
21/05:30am 24.3 24.1 11.9 45 7.1 N 4 9 2 5 1008.8 1007.1 0.0
21/05:00am 24.2 23.5 11.9 46 7.1 N 7 11 4 6 1008.7 1007.0 0.0
21/04:30am 24.9 25.6 12.2 45 7.4 CALM 0 7 0 4 1008.5 1006.8 0.0
21/04:00am 25.4 26.2 12.6 45 7.5 CALM 0 0 0 0 1008.7 1007.0 0.0
21/03:30am 25.8 25.4 13.0 45 7.6 NE 7 13 4 7 1009.0 1007.3 0.0
21/03:00am 24.8 24.3 10.7 41 8.0 E 4 11 2 6 1009.0 1007.3 0.0
21/02:30am 25.5 25.2 11.3 41 8.1 E 4 7 2 4 1009.1 1007.4 0.0
21/02:00am 27.1 27.7 12.0 39 8.8 CALM 0 0 0 0 1009.2 1007.5 0.0
21/01:30am 27.0 27.6 11.9 39 8.8 CALM 0 0 0 0 1009.5 1007.8 0.0
21/01:00am 27.5 28.1 11.9 38 9.1 CALM 0 0 0 0 1009.7 1008.1 0.0
21/12:30am 27.7 28.2 11.7 37 9.3 CALM 0 0 0 0 1009.8 1008.2 0.0
21/12:00am 29.2 28.4 11.7 34 10.3 E 7 13 4 7 1009.9 1008.3 0.0
 
Date/Time
CDT
Temp
°C
App
Temp
°C
Dew
Point
°C
Rel
Hum
%
Delta-T
°C
Wind Press
QNH
hPa
Press
MSL
hPa
Rain since
9am
mm
Dir  Spd
km/h
Gust
km/h
Spd
kts
Gust
kts
20/11:30pm 28.1 27.8 13.2 39 8.9 E 7 11 4 6 1010.1 1008.5 0.0
20/11:00pm 29.1 26.9 13.3 37 9.5 E 17 19 9 10 1010.3 1008.7 0.0
20/10:30pm 29.5 27.7 13.3 37 9.7 E 15 17 8 9 1010.5 1008.9 0.0
20/10:00pm 29.3 27.1 14.3 40 9.1 E 19 24 10 13 1010.4 1008.8 0.0
20/09:30pm 29.4 27.9 13.2 37 9.7 ESE 13 19 7 10 1010.4 1008.8 0.0
20/09:00pm 28.5 29.9 17.4 51 7.1 SW 6 17 3 9 1010.5 1008.9 0.0
20/08:30pm 28.8 29.5 18.0 52 7.0 SW 11 17 6 9 1010.5 1008.9 0.0
20/08:00pm 30.8 29.6 14.0 36 10.3 WSW 13 15 7 8 1010.2 1008.6 0.0
20/07:30pm 30.6 28.6 13.8 35 10.2 W 17 24 9 13 1010.0 1008.4 0.0
20/07:00pm 29.4 25.9 15.5 43 8.6 W 28 37 15 20 1009.7 1008.1 0.0
20/06:41pm 30.5 25.9 15.0 39 9.6 WNW 33 52 18 28 1009.4 1007.7 0.0
20/06:30pm 31.6 27.5 13.8 33 10.9 W 28 35 15 19 1009.2 1007.5 0.0
20/06:01pm 33.9 28.5 12.3 27 13.0 WNW 32 65 17 35 1008.5 1006.8 0.0
20/06:00pm 34.5 28.8 9.7 22 14.4 WNW 30 65 16 35 1008.1 1006.5 0.0
20/05:58pm 35.4 30.3 7.5 18 15.7 WNW 24 65 13 35 1008.1 1006.5 0.0
20/05:30pm 37.0 33.6 6.1 15 17.2 NW 13 17 7 9 1007.8 1006.2 0.0
20/05:00pm 37.5 34.2 6.5 15 17.4 W 13 24 7 13 1007.7 1006.1 0.0
20/04:30pm 37.6 33.8 5.6 14 17.7 NW 15 24 8 13 1008.0 1006.4 0.0
20/04:00pm 37.8 34.7 5.7 14 17.8 WNW 11 24 6 13 1008.6 1006.9 0.0
20/03:30pm 38.6 36.0 6.3 14 18.2 NNE 9 20 5 11 1009.2 1007.5 0.0
20/03:00pm 38.6 35.1 7.4 15 17.8 WNW 15 24 8 13 1009.9 1008.3 0.0
20/02:30pm 37.6 33.8 7.5 16 17.2 N 17 26 9 14 1010.5 1008.9 0.0
20/02:00pm 36.9 33.4 7.0 16 16.8 N 15 26 8 14 1011.1 1009.5 0.0
20/01:30pm 38.4 34.3 6.2 14 18.1 NNW 17 35 9 19 1011.5 1009.9 0.0
20/01:00pm 37.8 33.4 4.7 13 18.1 NNW 17 33 9 18 1011.9 1010.3 0.0
20/12:30pm 37.5 32.7 5.5 14 17.7 NNW 20 32 11 17 1012.5 1010.8 0.0
20/12:00pm 37.7 31.9 4.6 13 18.1 N 24 52 13 28 1012.7 1011.0 0.0
20/11:30am 36.8 31.9 4.9 14 17.4 NNE 20 37 11 20 1012.9 1011.2 0.0
20/11:00am 36.3 30.3 1.2 11 18.0 NNE 22 33 12 18 1013.2 1011.6 0.0
20/10:30am 35.5 29.2 -0.8 10 18.0 NNE 22 30 12 16 1013.4 1011.8 0.0
20/10:00am 34.7 28.0 -1.4 10 17.6 ENE 24 32 13 17 1013.5 1011.9 0.0

Other formats

Comma delimited format used in spreadsheet applications
http://www.bom.gov.au/fwo/IDS60801/IDS60801.94674.axf

JavaScript Object Notation format (JSON) in row-major order
http://www.bom.gov.au/fwo/IDS60801/IDS60801.94674.json

Data quality

Most of these data are generated automatically and are frequently updated. Quality checks on data are not normally performed. It is possible for incorrect values to appear. Refer to information at About Latest Weather Observations and please check the disclaimer before using these data.